Time;durP1;ratioP1;P1;durP2;ratioP2;P2;SDS_P1;SDS_P2;PMS_P1;PMS_P2;Temp;Humidity;BMP_temperature;BMP_pressure;BME280_temperature;BME280_humidity;BME280_pressure;Samples;Min_cycle;Max_cycle;Signal;HPM_P1;HPM_P2
2020/12/31 00:00:57;;;;;;;10.37;7.80;;;;;;;3.39;99.67;99512.14;639368;224;31228;-73
2020/12/31 00:03:25;;;;;;;11.17;7.60;;;;;;;3.23;99.97;99507.31;639537;218;24845;-76
2020/12/31 00:05:53;;;;;;;8.60;6.33;;;;;;;3.08;100.00;99502.05;639044;224;24832;-74
2020/12/31 00:08:21;;;;;;;7.27;5.70;;;;;;;3.14;100.00;99505.46;638285;224;24816;-73
2020/12/31 00:10:49;;;;;;;9.98;8.10;;;;;;;3.78;98.88;99501.80;647309;219;43551;-73
2020/12/31 00:13:17;;;;;;;12.87;8.83;;;;;;;3.33;99.05;99497.98;652664;219;23655;-73
2020/12/31 00:15:45;;;;;;;9.53;7.27;;;;;;;3.19;100.00;99511.88;648849;221;24841;-76
2020/12/31 00:18:13;;;;;;;13.10;8.30;;;;;;;3.27;99.73;99496.70;638898;224;25189;-76
2020/12/31 00:20:41;;;;;;;10.47;7.40;;;;;;;3.30;99.89;99500.80;638884;224;28014;-72
2020/12/31 00:23:09;;;;;;;9.90;7.20;;;;;;;3.34;99.87;99497.05;652703;219;25862;-73
2020/12/31 00:25:37;;;;;;;10.37;6.97;;;;;;;3.12;99.84;99490.63;638858;224;24885;-72
2020/12/31 00:28:05;;;;;;;8.63;6.27;;;;;;;3.17;99.97;99493.19;653527;219;24789;-75
2020/12/31 00:30:33;;;;;;;10.53;7.53;;;;;;;3.15;99.92;99486.07;651820;219;24921;-75
2020/12/31 00:33:00;;;;;;;8.43;7.13;;;;;;;2.96;100.00;99487.94;638515;224;24848;-73
2020/12/31 00:35:29;;;;;;;11.40;8.13;;;;;;;3.20;100.00;99489.56;639005;224;24805;-72
2020/12/31 00:37:57;;;;;;;9.90;7.27;;;;;;;3.32;100.00;99487.36;638444;224;24917;-73
2020/12/31 00:40:25;;;;;;;10.07;7.37;;;;;;;3.23;100.00;99483.72;638532;224;24842;-75
2020/12/31 00:42:53;;;;;;;11.53;7.33;;;;;;;3.30;100.00;99486.66;648661;219;28973;-73
2020/12/31 00:45:20;;;;;;;10.27;7.27;;;;;;;3.15;99.48;99481.41;654084;219;24774;-73
2020/12/31 00:47:48;;;;;;;13.10;7.80;;;;;;;3.16;100.00;99481.75;651556;219;24927;-76
2020/12/31 00:50:16;;;;;;;12.50;8.23;;;;;;;3.21;99.73;99477.07;638041;224;24805;-72
2020/12/31 00:52:44;;;;;;;11.67;8.00;;;;;;;3.15;100.00;99485.26;638639;223;24828;-75
2020/12/31 00:55:12;;;;;;;11.88;8.98;;;;;;;3.61;98.76;99476.12;633539;223;32815;-72
2020/12/31 00:57:40;;;;;;;8.90;7.50;;;;;;;3.24;99.89;99470.44;653745;217;23720;-74
2020/12/31 01:00:08;;;;;;;11.10;7.57;;;;;;;3.35;99.70;99468.31;653182;218;24773;-72
2020/12/31 01:02:36;;;;;;;12.33;7.27;;;;;;;3.28;99.25;99453.84;639346;223;24864;-73
2020/12/31 01:05:07;;;;;;;9.90;7.27;;;;;;;3.15;99.94;99462.95;640328;223;24847;-73
2020/12/31 01:07:35;;;;;;;9.37;6.50;;;;;;;3.01;100.00;99455.94;652654;218;24763;-72
2020/12/31 01:10:03;;;;;;;9.70;6.20;;;;;;;3.11;100.00;99456.89;652328;219;24776;-72
2020/12/31 01:12:32;;;;;;;11.47;6.77;;;;;;;3.23;99.24;99449.50;637965;223;25072;-73
2020/12/31 01:15:00;;;;;;;11.07;6.87;;;;;;;3.12;99.49;99446.96;636896;220;24892;-73
2020/12/31 01:17:28;;;;;;;11.27;7.70;;;;;;;3.13;99.71;99449.88;646690;221;24772;-73
2020/12/31 01:19:56;;;;;;;12.00;7.50;;;;;;;3.08;99.59;99448.11;638291;224;24819;-73
2020/12/31 01:22:24;;;;;;;7.97;6.43;;;;;;;2.94;100.00;99450.44;650285;219;27964;-75
2020/12/31 01:24:52;;;;;;;11.10;7.20;;;;;;;2.97;100.00;99449.76;651303;219;24820;-74
2020/12/31 01:27:20;;;;;;;11.20;7.40;;;;;;;3.05;100.00;99450.91;639098;224;25097;-73
2020/12/31 01:29:48;;;;;;;12.33;6.53;;;;;;;2.99;100.00;99449.64;653392;219;24761;-73
2020/12/31 01:32:16;;;;;;;11.80;7.20;;;;;;;2.86;100.00;99446.36;638662;224;26264;-74
2020/12/31 01:34:44;;;;;;;10.53;8.30;;;;;;;3.43;99.59;99442.84;633504;224;32739;-75
2020/12/31 01:37:12;;;;;;;8.90;7.50;;;;;;;2.94;100.00;99445.30;639105;224;23698;-73
2020/12/31 01:39:40;;;;;;;9.10;7.17;;;;;;;2.87;100.00;99434.69;638355;224;25225;-76
2020/12/31 01:42:08;;;;;;;11.65;8.50;;;;;;;3.33;100.00;99436.31;647981;219;32872;-73
2020/12/31 01:44:36;;;;;;;10.97;7.50;;;;;;;2.76;100.00;99434.66;651632;219;23706;-72
2020/12/31 01:47:04;;;;;;;10.00;8.05;;;;;;;3.25;98.85;99427.11;631741;224;32781;-74
2020/12/31 01:49:32;;;;;;;10.78;8.60;;;;;;;3.22;98.90;99424.28;633350;224;32718;-73
2020/12/31 01:52:00;;;;;;;9.70;7.20;;;;;;;2.76;100.00;99424.86;653048;219;23700;-75
2020/12/31 01:54:28;;;;;;;10.20;7.23;;;;;;;2.69;100.00;99428.38;651454;219;27983;-73
2020/12/31 01:56:56;;;;;;;9.33;6.77;;;;;;;2.78;100.00;99422.53;639011;224;24842;-73
2020/12/31 01:59:24;;;;;;;8.67;6.30;;;;;;;2.65;100.00;99423.09;639017;224;24835;-75
2020/12/31 02:01:52;;;;;;;10.83;7.33;;;;;;;2.54;100.00;99426.48;639299;223;24814;-73
2020/12/31 02:04:20;;;;;;;12.37;8.35;;;;;;;2.94;99.06;99416.58;640126;221;32719;-75
2020/12/31 02:06:48;;;;;;;10.93;8.95;;;;;;;3.08;97.80;99408.30;645337;219;32562;-73
2020/12/31 02:09:18;;;;;;;11.53;7.87;;;;;;;2.53;100.00;99424.00;639496;222;23731;-73
2020/12/31 02:11:47;;;;;;;9.50;6.90;;;;;;;2.24;100.00;99428.23;653157;219;26952;-75
2020/12/31 02:14:15;;;;;;;10.33;7.17;;;;;;;2.42;100.00;99427.38;652374;219;24764;-73
2020/12/31 02:16:43;;;;;;;9.77;6.67;;;;;;;2.21;100.00;99422.05;636881;225;25112;-75
2020/12/31 02:19:11;;;;;;;8.67;6.80;;;;;;;2.34;100.00;99416.38;635974;224;24820;-73
2020/12/31 02:21:43;;;;;;;10.07;7.37;;;;;;;2.37;100.00;99414.05;653938;219;24817;-77
2020/12/31 02:24:11;;;;;;;9.67;7.13;;;;;;;2.29;100.00;99407.41;651482;219;28991;-73
2020/12/31 02:26:38;;;;;;;9.60;7.00;;;;;;;2.25;100.00;99404.25;650429;218;24789;-73
2020/12/31 02:29:06;;;;;;;9.10;7.00;;;;;;;2.09;100.00;99407.09;650356;219;25177;-73
2020/12/31 02:31:34;;;;;;;11.00;7.57;;;;;;;2.12;100.00;99417.62;639208;223;24813;-73
2020/12/31 02:34:02;;;;;;;10.70;7.57;;;;;;;2.09;100.00;99408.84;638808;224;24800;-73
2020/12/31 02:36:30;;;;;;;11.30;8.00;;;;;;;2.26;100.00;99416.14;653051;219;25182;-73
2020/12/31 02:38:58;;;;;;;11.53;7.97;;;;;;;2.17;100.00;99414.24;652268;219;24793;-75
2020/12/31 02:41:26;;;;;;;13.40;9.63;;;;;;;2.63;100.00;99409.56;644228;220;32785;-73
2020/12/31 02:43:54;;;;;;;13.00;8.97;;;;;;;2.44;100.00;99413.16;638805;224;23724;-77
2020/12/31 02:46:22;;;;;;;12.20;8.30;;;;;;;2.13;100.00;99410.27;639118;224;25245;-72
2020/12/31 02:48:50;;;;;;;12.67;7.57;;;;;;;2.08;100.00;99409.77;653706;219;24846;-72
2020/12/31 02:51:18;;;;;;;10.30;7.67;;;;;;;2.19;100.00;99411.09;638866;224;24850;-75
2020/12/31 02:53:46;;;;;;;14.93;10.38;;;;;;;2.47;100.00;99403.94;645540;219;32546;-73
2020/12/31 02:56:14;;;;;;;14.17;9.30;;;;;;;2.31;100.00;99403.79;638040;224;23719;-75
2020/12/31 02:58:42;;;;;;;12.87;8.80;;;;;;;2.17;100.00;99400.59;638858;224;24929;-72
2020/12/31 03:01:10;;;;;;;13.03;8.27;;;;;;;2.19;100.00;99407.25;650840;219;24767;-73
2020/12/31 03:03:38;;;;;;;10.10;8.27;;;;;;;2.09;100.00;99401.14;649702;219;24812;-75
2020/12/31 03:06:06;;;;;;;14.13;9.07;;;;;;;2.17;100.00;99397.57;652169;219;24976;-73
2020/12/31 03:08:34;;;;;;;15.15;10.30;;;;;;;2.53;100.00;99395.30;646046;219;32625;-76
2020/12/31 03:11:04;;;;;;;12.30;8.87;;;;;;;2.24;100.00;99394.08;637999;224;24963;-75
2020/12/31 03:13:32;;;;;;;17.03;7.83;;;;;;;2.26;100.00;99397.38;638153;224;24898;-75
2020/12/31 03:16:00;;;;;;;12.23;8.57;;;;;;;2.38;100.00;99398.55;636790;225;24813;-73
2020/12/31 03:18:28;;;;;;;12.07;8.00;;;;;;;2.32;100.00;99390.03;651440;219;24806;-76
2020/12/31 03:20:56;;;;;;;13.03;8.23;;;;;;;2.04;100.00;99394.27;653598;217;25023;-73
2020/12/31 03:23:24;;;;;;;10.77;7.73;;;;;;;2.18;100.00;99386.84;652893;218;25055;-73
2020/12/31 03:25:51;;;;;;;15.10;10.13;;;;;;;2.46;100.00;99377.93;634281;223;32729;-73
2020/12/31 03:28:19;;;;;;;16.80;10.00;;;;;;;2.18;100.00;99386.38;639698;223;23682;-76
2020/12/31 03:30:47;;;;;;;14.60;8.60;;;;;;;2.18;100.00;99390.23;640097;223;24862;-73
2020/12/31 03:33:16;;;;;;;13.20;8.93;;;;;;;2.24;100.00;99376.94;653799;219;24813;-73
2020/12/31 03:35:43;;;;;;;11.60;8.43;;;;;;;2.22;100.00;99372.39;639054;224;24814;-73
2020/12/31 03:38:11;;;;;;;14.40;9.47;;;;;;;2.28;100.00;99371.95;654403;218;31463;-72
2020/12/31 03:40:39;;;;;;;12.60;8.97;;;;;;;2.21;100.00;99366.91;651155;219;24751;-72
2020/12/31 03:43:07;;;;;;;11.37;7.80;;;;;;;2.07;100.00;99368.39;652750;219;24835;-73
2020/12/31 03:45:36;;;;;;;12.50;8.50;;;;;;;2.24;100.00;99365.39;652137;219;24769;-73
2020/12/31 03:48:04;;;;;;;15.40;8.40;;;;;;;2.14;100.00;99361.89;639023;223;25097;-73
2020/12/31 03:50:32;;;;;;;12.60;8.53;;;;;;;2.16;100.00;99358.75;637131;225;25166;-74
2020/12/31 03:53:00;;;;;;;13.17;8.80;;;;;;;2.02;100.00;99358.48;650390;219;31203;-72
2020/12/31 03:55:28;;;;;;;11.93;8.40;;;;;;;2.17;100.00;99356.53;638408;224;24891;-75
2020/12/31 03:57:56;;;;;;;17.30;9.33;;;;;;;2.15;100.00;99343.02;653571;219;24754;-73
2020/12/31 04:00:24;;;;;;;14.13;9.33;;;;;;;2.16;100.00;99338.23;652195;219;25883;-72
2020/12/31 04:02:51;;;;;;;14.90;9.47;;;;;;;2.23;100.00;99336.83;638956;224;24886;-74
2020/12/31 04:05:19;;;;;;;16.75;11.38;;;;;;;2.59;100.00;99331.17;643311;219;32654;-72
2020/12/31 04:07:47;;;;;;;13.53;9.60;;;;;;;2.33;100.00;99330.09;639027;224;23725;-73
2020/12/31 04:10:15;;;;;;;13.90;9.67;;;;;;;2.29;100.00;99322.75;652483;219;24767;-73
2020/12/31 04:12:43;;;;;;;12.50;8.90;;;;;;;2.20;100.00;99324.24;651674;219;24795;-73
2020/12/31 04:15:11;;;;;;;15.07;9.53;;;;;;;2.36;100.00;99317.03;638746;224;24831;-75
2020/12/31 04:17:39;;;;;;;11.83;8.37;;;;;;;2.46;100.00;99312.50;652186;219;25249;-73
2020/12/31 04:20:08;;;;;;;16.87;8.50;;;;;;;2.38;100.00;99312.59;638618;223;27053;-76
2020/12/31 04:22:36;;;;;;;15.10;10.98;;;;;;;2.50;100.00;99307.47;643686;219;32891;-73
2020/12/31 04:25:04;;;;;;;13.63;9.63;;;;;;;2.38;100.00;99304.90;653537;219;23653;-73
2020/12/31 04:27:32;;;;;;;12.57;8.77;;;;;;;2.45;100.00;99298.03;638104;224;33583;-73
2020/12/31 04:30:00;;;;;;;14.50;8.73;;;;;;;2.41;100.00;99300.49;652496;218;24761;-74
2020/12/31 04:32:28;;;;;;;11.47;8.03;;;;;;;2.53;100.00;99297.78;637966;222;25240;-73
2020/12/31 04:34:55;;;;;;;16.05;11.10;;;;;;;2.79;99.83;99287.27;644415;220;32857;-74
2020/12/31 04:37:23;;;;;;;13.93;9.00;;;;;;;2.42;100.00;99296.52;639008;224;23669;-75
2020/12/31 04:39:51;;;;;;;16.17;9.67;;;;;;;2.43;100.00;99288.36;639738;223;24842;-75
2020/12/31 04:42:19;;;;;;;14.50;9.17;;;;;;;2.26;100.00;99289.17;638638;221;24837;-73
2020/12/31 04:44:47;;;;;;;10.77;7.70;;;;;;;2.43;100.00;99284.51;639709;224;24898;-76
2020/12/31 04:47:19;;;;;;;14.03;8.87;;;;;;;2.30;100.00;99278.20;653852;219;25025;-73
2020/12/31 04:49:50;;;;;;;13.63;8.40;;;;;;;2.31;100.00;99278.09;652871;219;25181;-75
2020/12/31 04:52:19;;;;;;;14.43;8.77;;;;;;;2.47;100.00;99282.87;651562;219;24804;-73
2020/12/31 04:54:47;;;;;;;15.78;10.48;;;;;;;2.81;100.00;99282.36;636235;223;32969;-75
2020/12/31 04:57:15;;;;;;;12.90;8.63;;;;;;;2.54;100.00;99281.48;639569;224;23723;-73
2020/12/31 04:59:43;;;;;;;13.17;8.23;;;;;;;2.50;100.00;99277.96;650650;219;24810;-73
2020/12/31 05:02:11;;;;;;;16.00;8.87;;;;;;;2.64;100.00;99275.97;650811;219;24857;-73
2020/12/31 05:04:39;;;;;;;14.23;8.40;;;;;;;2.54;100.00;99276.34;651861;219;24799;-72
2020/12/31 05:07:07;;;;;;;12.27;7.77;;;;;;;2.59;100.00;99283.22;652735;219;24778;-73
2020/12/31 05:09:35;;;;;;;12.63;8.10;;;;;;;2.54;100.00;99283.23;637819;223;24857;-73
2020/12/31 05:12:04;;;;;;;13.37;7.50;;;;;;;2.48;100.00;99282.41;652769;219;24810;-74
2020/12/31 05:14:32;;;;;;;13.43;8.30;;;;;;;2.50;100.00;99285.20;638948;224;24792;-73
2020/12/31 05:17:13;;;;;;;13.22;10.10;;;;;;;2.89;100.00;99280.50;646968;219;32628;-73
2020/12/31 05:19:41;;;;;;;13.80;10.60;;;;;;;2.54;100.00;99280.67;652710;219;23656;-72
2020/12/31 05:22:11;;;;;;;16.30;10.87;;;;;;;2.48;100.00;99279.83;635908;224;25126;-74
2020/12/31 05:24:40;;;;;;;12.77;8.57;;;;;;;2.54;100.00;99275.53;651305;219;24765;-73
2020/12/31 05:27:17;;;;;;;14.97;8.67;;;;;;;2.58;100.00;99281.59;651833;219;24808;-75
2020/12/31 05:30:01;;;;;;;12.10;8.57;;;;;;;2.56;100.00;99283.93;638906;224;24868;-73
2020/12/31 05:32:29;;;;;;;13.77;8.20;;;;;;;2.37;100.00;99278.89;653059;219;24799;-73
2020/12/31 05:34:57;;;;;;;11.60;8.17;;;;;;;2.40;100.00;99277.87;653128;219;24839;-76
2020/12/31 05:37:26;;;;;;;12.43;8.10;;;;;;;2.38;100.00;99280.52;638464;224;24836;-76
2020/12/31 05:39:57;;;;;;;10.20;6.93;;;;;;;2.45;100.00;99277.51;652739;219;24947;-72
2020/12/31 05:42:25;;;;;;;11.60;6.93;;;;;;;2.33;100.00;99274.94;651422;219;24759;-73
2020/12/31 05:45:10;;;;;;;10.40;7.10;;;;;;;2.40;100.00;99275.77;653545;218;24761;-72
2020/12/31 05:47:38;;;;;;;11.57;8.70;;;;;;;2.82;98.50;99268.63;647923;218;32542;-73
2020/12/31 05:50:24;;;;;;;9.67;7.80;;;;;;;2.52;99.27;99263.27;636346;224;23692;-77
2020/12/31 05:52:52;;;;;;;11.50;7.20;;;;;;;2.29;100.00;99268.41;650942;219;24812;-73
2020/12/31 05:55:20;;;;;;;12.10;8.68;;;;;;;3.00;98.53;99264.26;634300;223;43465;-75
2020/12/31 05:57:49;;;;;;;8.93;6.93;;;;;;;2.35;99.38;99264.09;649447;219;23767;-74
2020/12/31 06:00:18;;;;;;;9.50;7.10;;;;;;;2.11;100.00;99271.52;639006;221;24934;-73
2020/12/31 06:02:48;;;;;;;11.90;7.80;;;;;;;1.98;100.00;99270.37;653219;219;30063;-73
2020/12/31 06:05:17;;;;;;;11.13;7.50;;;;;;;1.83;100.00;99268.48;638913;224;24852;-72
2020/12/31 06:07:45;;;;;;;12.80;8.13;;;;;;;1.77;100.00;99267.16;639231;224;24840;-72
2020/12/31 06:10:14;;;;;;;11.25;8.83;;;;;;;2.45;99.95;99263.39;648138;219;32563;-73
2020/12/31 06:12:47;;;;;;;11.17;7.60;;;;;;;2.01;100.00;99263.72;652997;219;23662;-75
2020/12/31 06:15:17;;;;;;;11.90;7.93;;;;;;;1.78;100.00;99269.26;639178;223;24896;-76
2020/12/31 06:17:45;;;;;;;10.30;7.10;;;;;;;1.76;100.00;99265.53;649016;219;25069;-73
2020/12/31 06:20:13;;;;;;;10.40;6.90;;;;;;;1.67;100.00;99266.20;651203;219;24754;-73
2020/12/31 06:22:56;;;;;;;8.30;6.13;;;;;;;1.60;100.00;99273.99;638770;224;26991;-76
2020/12/31 06:25:27;;;;;;;11.57;6.37;;;;;;;1.58;100.00;99274.57;653457;219;24823;-72
2020/12/31 06:27:55;;;;;;;9.40;7.00;;;;;;;1.58;100.00;99269.45;650824;219;29040;-75
2020/12/31 06:30:23;;;;;;;9.20;6.80;;;;;;;1.63;100.00;99270.38;637889;224;24999;-76
2020/12/31 06:32:51;;;;;;;8.00;5.77;;;;;;;1.69;100.00;99269.48;650829;219;24761;-73
2020/12/31 06:35:19;;;;;;;11.03;7.07;;;;;;;1.65;100.00;99273.18;653202;219;27925;-73
2020/12/31 06:37:50;;;;;;;11.63;6.87;;;;;;;1.69;100.00;99270.77;637889;224;24857;-73
2020/12/31 06:40:23;;;;;;;11.93;6.90;;;;;;;1.70;100.00;99265.18;638208;223;24855;-72
2020/12/31 06:43:01;;;;;;;11.40;7.00;;;;;;;1.76;100.00;99268.09;638805;224;24888;-76
2020/12/31 06:45:35;;;;;;;11.70;8.40;;;;;;;2.36;100.00;99256.73;647458;219;32510;-72
2020/12/31 06:48:04;;;;;;;9.17;6.67;;;;;;;1.91;100.00;99258.45;651981;219;23660;-74
2020/12/31 06:50:54;;;;;;;11.83;7.27;;;;;;;1.95;100.00;99259.03;639191;224;24838;-73
2020/12/31 06:53:30;;;;;;;10.07;6.60;;;;;;;1.79;100.00;99260.64;653023;219;24783;-73
2020/12/31 06:55:58;;;;;;;9.30;6.33;;;;;;;1.91;100.00;99269.17;652485;217;24802;-74
2020/12/31 06:58:26;;;;;;;10.53;6.37;;;;;;;1.78;100.00;99261.10;640691;223;24831;-74
2020/12/31 07:00:54;;;;;;;7.17;5.60;;;;;;;1.85;100.00;99261.95;639994;223;24825;-72
2020/12/31 07:03:46;;;;;;;10.03;7.20;;;;;;;1.76;100.00;99263.44;640161;223;24843;-73
2020/12/31 07:06:35;;;;;;;9.47;7.07;;;;;;;1.71;100.00;99263.78;638612;223;24822;-73
2020/12/31 07:09:05;;;;;;;9.80;6.50;;;;;;;1.68;100.00;99265.73;639544;224;24803;-73
2020/12/31 07:11:36;;;;;;;9.93;6.70;;;;;;;1.81;100.00;99268.21;636263;224;24849;-74
2020/12/31 07:14:19;;;;;;;8.03;6.50;;;;;;;1.86;100.00;99267.42;646975;221;25898;-72
2020/12/31 07:16:48;;;;;;;8.90;6.70;;;;;;;1.95;100.00;99263.70;647264;220;26977;-72
2020/12/31 07:19:16;;;;;;;9.70;6.57;;;;;;;1.96;100.00;99267.08;645872;220;28054;-74
2020/12/31 07:21:44;;;;;;;10.23;7.10;;;;;;;1.89;100.00;99269.76;639050;224;24798;-75
2020/12/31 07:24:20;;;;;;;12.47;8.68;;;;;;;2.34;100.00;99266.30;633289;224;32730;-78
2020/12/31 07:26:49;;;;;;;9.70;7.57;;;;;;;2.17;100.00;99269.33;650101;219;23666;-75
2020/12/31 07:29:24;;;;;;;9.37;6.83;;;;;;;2.17;100.00;99268.05;639387;221;24809;-74
2020/12/31 07:31:52;;;;;;;13.37;9.63;;;;;;;2.03;100.00;99266.98;639268;224;25248;-72
2020/12/31 07:34:21;;;;;;;11.77;8.00;;;;;;;2.12;100.00;99268.05;652697;219;24826;-72
2020/12/31 07:36:57;;;;;;;9.13;6.93;;;;;;;2.11;100.00;99277.47;639747;224;24858;-72
2020/12/31 07:39:26;;;;;;;7.47;5.57;;;;;;;2.19;99.90;99264.90;638780;224;24774;-72
2020/12/31 07:42:11;;;;;;;8.80;6.10;;;;;;;2.16;99.92;99257.91;653594;219;24820;-74
2020/12/31 07:44:49;;;;;;;6.93;5.73;;;;;;;2.12;100.00;99261.64;651101;219;25112;-73
2020/12/31 07:47:17;;;;;;;10.00;6.80;;;;;;;2.59;99.16;99254.17;632920;224;43445;-72
2020/12/31 07:49:46;;;;;;;8.80;6.90;;;;;;;2.34;99.16;99256.05;638708;224;23712;-72
2020/12/31 07:52:14;;;;;;;9.23;6.07;;;;;;;2.34;99.35;99253.95;650669;219;24784;-74
2020/12/31 07:54:42;;;;;;;14.83;11.20;;;;;;;2.46;98.98;99242.75;652983;218;24829;-75
2020/12/31 07:57:11;;;;;;;7.77;6.47;;;;;;;2.30;99.05;99240.54;652335;219;25922;-72
2020/12/31 07:59:42;;;;;;;9.07;6.60;;;;;;;2.05;99.64;99251.02;651650;219;24767;-72
2020/12/31 08:02:10;;;;;;;9.33;7.07;;;;;;;2.06;100.00;99248.80;635927;224;24849;-74
2020/12/31 08:04:38;;;;;;;10.53;7.78;;;;;;;2.72;99.35;99243.30;645624;219;32557;-76
2020/12/31 08:07:14;;;;;;;11.97;8.60;;;;;;;2.50;99.14;99245.42;651998;217;23708;-76
2020/12/31 08:09:42;;;;;;;9.23;7.23;;;;;;;2.41;100.00;99250.00;649512;220;24766;-77
2020/12/31 08:12:11;;;;;;;15.73;11.00;;;;;;;2.68;99.00;99249.62;643289;222;24792;-75
2020/12/31 08:14:41;;;;;;;19.93;12.37;;;;;;;2.67;98.95;99260.80;639230;223;24824;-74
2020/12/31 08:17:09;;;;;;;12.47;8.33;;;;;;;2.60;98.98;99260.47;654096;218;24778;-75
2020/12/31 08:19:38;;;;;;;11.07;7.50;;;;;;;2.70;98.89;99263.15;652834;219;24798;-76
2020/12/31 08:22:26;;;;;;;14.80;6.97;;;;;;;2.58;98.97;99267.94;650409;219;24782;-78
2020/12/31 08:24:56;;;;;;;10.60;7.00;;;;;;;2.53;99.56;99262.33;638067;224;24878;-75
2020/12/31 08:27:24;;;;;;;9.27;7.17;;;;;;;2.59;99.28;99262.69;638978;224;24834;-75
2020/12/31 08:29:54;;;;;;;8.00;6.70;;;;;;;2.49;99.87;99257.09;654084;217;24757;-78
2020/12/31 08:32:24;;;;;;;10.50;6.20;;;;;;;2.60;99.72;99252.77;638563;224;24836;-76
2020/12/31 08:34:55;;;;;;;8.93;6.40;;;;;;;2.45;99.95;99252.66;645873;221;24767;-74
2020/12/31 08:37:24;;;;;;;10.00;7.00;;;;;;;2.54;99.94;99254.54;638801;224;24838;-77
2020/12/31 08:39:53;;;;;;;11.83;7.10;;;;;;;2.65;99.73;99249.84;648850;219;25119;-77
2020/12/31 08:42:21;;;;;;;13.90;8.93;;;;;;;2.91;98.68;99239.64;633556;224;32741;-74
2020/12/31 08:44:53;;;;;;;14.30;8.13;;;;;;;2.81;99.04;99241.28;652658;219;23653;-75
2020/12/31 08:47:22;;;;;;;10.60;7.60;;;;;;;2.75;98.93;99248.20;651657;219;24815;-77
2020/12/31 08:49:53;;;;;;;11.13;6.23;;;;;;;2.68;99.36;99244.48;637908;224;24867;-79
2020/12/31 08:52:23;;;;;;;10.57;6.87;;;;;;;2.72;99.81;99237.36;636657;225;24916;-75
2020/12/31 08:55:06;;;;;;;10.50;6.50;;;;;;;2.76;99.71;99247.73;651200;219;26206;-75
2020/12/31 08:57:34;;;;;;;13.78;9.18;;;;;;;3.06;98.36;99237.61;631978;224;32690;-75
2020/12/31 09:00:02;;;;;;;11.57;7.00;;;;;;;2.96;99.31;99243.97;638626;224;23692;-75
2020/12/31 09:02:30;;;;;;;9.00;6.73;;;;;;;2.96;98.86;99240.58;649571;219;24817;-74
2020/12/31 09:05:09;;;;;;;8.90;6.37;;;;;;;2.87;98.71;99237.44;637599;221;24820;-74
2020/12/31 09:07:38;;;;;;;9.90;7.00;;;;;;;2.98;98.88;99235.67;652811;219;24764;-73
2020/12/31 09:10:13;;;;;;;9.27;6.57;;;;;;;2.92;98.97;99233.56;651943;219;24817;-73
2020/12/31 09:12:41;;;;;;;12.60;6.97;;;;;;;2.95;99.02;99225.61;638624;224;24848;-77
2020/12/31 09:15:09;;;;;;;15.60;7.53;;;;;;;2.87;99.44;99225.42;654216;219;24773;-73
2020/12/31 09:17:37;;;;;;;12.23;7.67;;;;;;;2.93;99.74;99231.34;650998;219;24815;-73
2020/12/31 09:20:05;;;;;;;17.47;8.40;;;;;;;2.98;99.03;99228.43;640238;221;24840;-74
2020/12/31 09:22:34;;;;;;;12.90;7.90;;;;;;;2.83;99.92;99225.32;652901;219;24860;-73
2020/12/31 09:25:10;;;;;;;12.50;7.70;;;;;;;2.89;100.00;99231.24;639794;223;24847;-75
2020/12/31 09:27:38;;;;;;;17.00;9.97;;;;;;;2.83;100.00;99227.07;649648;219;24805;-74
2020/12/31 09:30:10;;;;;;;15.70;10.98;;;;;;;3.14;99.79;99226.74;634035;223;32810;-73
2020/12/31 09:32:35;;;;;;;14.37;10.30;;;;;;;2.99;100.00;99222.36;652859;218;23697;-73
2020/12/31 09:35:04;;;;;;;14.00;8.73;;;;;;;2.94;100.00;99226.55;653659;218;24809;-73
2020/12/31 09:37:32;;;;;;;13.20;8.00;;;;;;;2.99;100.00;99221.08;653117;219;24815;-73
2020/12/31 09:40:00;;;;;;;10.50;8.10;;;;;;;3.00;100.00;99221.41;637115;223;24844;-76
2020/12/31 09:42:28;;;;;;;12.10;8.17;;;;;;;3.07;100.00;99226.40;637792;224;24834;-76
2020/12/31 09:44:56;;;;;;;10.43;7.73;;;;;;;3.04;99.98;99217.66;652548;219;24811;-73
2020/12/31 09:47:25;;;;;;;11.70;7.07;;;;;;;2.91;100.00;99220.38;651784;219;25018;-75
2020/12/31 09:49:53;;;;;;;11.07;7.40;;;;;;;2.95;100.00;99217.91;653219;219;24774;-74
2020/12/31 09:52:21;;;;;;;11.77;7.27;;;;;;;3.00;100.00;99220.60;638590;224;26061;-77
2020/12/31 09:54:49;;;;;;;10.60;6.23;;;;;;;3.00;100.00;99224.45;654398;218;24769;-74
2020/12/31 09:57:18;;;;;;;15.00;6.53;;;;;;;2.96;100.00;99223.42;640636;219;24816;-73
2020/12/31 09:59:46;;;;;;;7.93;5.57;;;;;;;2.98;100.00;99218.16;638737;224;24850;-75
2020/12/31 10:02:14;;;;;;;11.60;6.60;;;;;;;3.23;100.00;99213.14;638595;224;24837;-73
2020/12/31 10:04:42;;;;;;;8.80;6.83;;;;;;;3.29;100.00;99215.23;653130;218;24984;-76
2020/12/31 10:07:10;;;;;;;10.27;6.80;;;;;;;3.38;100.00;99211.09;652028;219;24758;-73
2020/12/31 10:09:38;;;;;;;8.43;6.27;;;;;;;3.43;100.00;99216.69;638794;224;24806;-73
2020/12/31 10:12:06;;;;;;;12.87;6.30;;;;;;;3.67;100.00;99213.88;652998;219;24822;-75
2020/12/31 10:14:34;;;;;;;9.83;5.53;;;;;;;3.68;100.00;99210.37;652111;219;24782;-73
2020/12/31 10:17:02;;;;;;;5.50;4.67;;;;;;;3.88;100.00;99206.95;638079;224;24884;-78
2020/12/31 10:19:30;;;;;;;8.68;6.08;;;;;;;3.98;99.48;99201.39;647627;219;32654;-73
2020/12/31 10:21:58;;;;;;;9.53;5.60;;;;;;;3.98;100.00;99197.53;653380;219;23699;-73
2020/12/31 10:24:25;;;;;;;8.67;5.87;;;;;;;3.97;100.00;99201.05;651623;219;25441;-77
2020/12/31 10:26:53;;;;;;;8.48;5.92;;;;;;;4.07;99.28;99198.03;631798;224;32837;-76
2020/12/31 10:29:21;;;;;;;5.90;5.30;;;;;;;3.87;99.73;99195.85;651003;219;23693;-73
2020/12/31 10:31:51;;;;;;;5.80;4.97;;;;;;;3.65;100.00;99195.17;640919;222;24821;-73
2020/12/31 10:34:19;;;;;;;5.13;4.50;;;;;;;3.68;100.00;99200.09;655636;218;24737;-73
2020/12/31 10:36:52;;;;;;;7.40;4.70;;;;;;;3.61;100.00;99193.80;638933;223;25126;-73
2020/12/31 10:39:20;;;;;;;5.77;4.67;;;;;;;3.61;100.00;99186.09;650905;219;24936;-76
2020/12/31 10:41:48;;;;;;;8.10;5.87;;;;;;;3.84;100.00;99178.58;647213;219;32566;-72
2020/12/31 10:44:16;;;;;;;7.33;5.67;;;;;;;3.92;100.00;99171.02;647266;219;32553;-74
2020/12/31 10:46:44;;;;;;;7.57;5.17;;;;;;;3.86;100.00;99172.36;652149;219;23687;-73
2020/12/31 10:49:12;;;;;;;6.87;5.67;;;;;;;3.94;100.00;99174.75;651268;219;24814;-72
2020/12/31 10:51:41;;;;;;;6.30;5.30;;;;;;;3.75;100.00;99163.91;640525;223;24896;-73
2020/12/31 10:54:11;;;;;;;5.53;4.00;;;;;;;3.68;100.00;99169.23;639558;223;24804;-73
2020/12/31 10:56:37;;;;;;;4.90;4.00;;;;;;;3.65;100.00;99165.61;642151;223;26973;-73
2020/12/31 10:59:05;;;;;;;5.17;3.93;;;;;;;3.67;100.00;99157.32;641656;223;25161;-73
2020/12/31 11:01:33;;;;;;;6.47;4.60;;;;;;;3.65;100.00;99156.14;639488;222;24894;-74
2020/12/31 11:04:02;;;;;;;5.20;4.00;;;;;;;3.71;100.00;99147.12;638687;223;25032;-73
2020/12/31 11:06:30;;;;;;;8.45;5.67;;;;;;;3.84;100.00;99146.44;627309;224;33117;-71
2020/12/31 11:08:58;;;;;;;5.80;5.07;;;;;;;3.76;100.00;99143.68;636409;224;23720;-72
2020/12/31 11:11:26;;;;;;;9.00;5.37;;;;;;;3.84;100.00;99143.39;651891;219;24842;-74
2020/12/31 11:13:54;;;;;;;5.60;5.00;;;;;;;3.97;100.00;99139.32;651089;219;28426;-71
2020/12/31 11:16:22;;;;;;;5.77;5.10;;;;;;;3.93;100.00;99136.64;641761;223;24799;-72
2020/12/31 11:18:50;;;;;;;6.30;4.90;;;;;;;3.83;100.00;99132.77;640678;223;24819;-73
2020/12/31 11:21:19;;;;;;;6.00;5.13;;;;;;;3.89;100.00;99134.00;641250;223;24820;-72
2020/12/31 11:23:47;;;;;;;7.60;5.93;;;;;;;3.90;100.00;99129.66;643060;221;24772;-73
2020/12/31 11:26:15;;;;;;;6.40;5.00;;;;;;;3.86;100.00;99129.12;639313;223;29018;-74
2020/12/31 11:28:43;;;;;;;7.63;5.17;;;;;;;3.79;100.00;99127.52;640828;223;24787;-72
2020/12/31 11:31:12;;;;;;;10.65;7.65;;;;;;;4.10;100.00;99120.61;634014;224;32815;-70
2020/12/31 11:33:39;;;;;;;7.47;6.62;;;;;;;4.31;99.69;99116.66;646978;219;33219;-72
2020/12/31 11:36:07;;;;;;;9.57;6.27;;;;;;;4.12;100.00;99109.72;651654;219;23681;-74
2020/12/31 11:38:35;;;;;;;9.70;5.90;;;;;;;4.04;100.00;99109.55;639677;221;25001;-72